• Join FlightAware (Why Join?)
  • Login
  • US Flag 
01:52AM EDT


 

Airport Tracker/Info


-or-


 

Live Flight TrackerFlight Track Log ✈ FD412 ✈ 11-Jun-2013 ✈ YHUG / HGD - YBTL / TSV

Flight Track Log - Related Links

Times and Time Zones

All times are in EDT time to prevent confusion due to time zone crossing. See the FD412 flight status page for this flight to view local times or setup timezone preferences in your user account.

Time Position Orientation Groundspeed Altitude Reporting Facility
EDT Latitude Longitude Course Direction KTS MPH feet Rate Location/Type
01:40AM -20.6730 144.4604 237° Southwest  Level Aus ATC (Calculated)
01:42AM -20.7076 144.4024 57° Northeast 171 197 10,000 3,420 Climbing Aus ATC (RADAR)
01:43AM -20.6683 144.4682 57° Northeast 183 211 12,500 1,680 Climbing Aus ATC (RADAR)
01:45AM -20.6307 144.5330 58° Northeast 186 214 14,900 780 Climbing Aus ATC (RADAR)
01:46AM -20.5712 144.6295 57° Northeast 254 292 15,000  Climbing Aus ATC (RADAR)
01:48AM -20.5095 144.7265 56° Northeast 266 306 15,000  Level Aus ATC (RADAR)
01:50AM -20.4455 144.8320 57° Northeast 268 308 15,000  Level Aus ATC (RADAR)
01:51AM -20.4027 144.9349 66° East 269 310 15,000  Level Aus ATC (RADAR)
01:53AM -20.3667 145.0574 73° East 272 313 15,000  Level Aus ATC (RADAR)
01:54AM -20.3303 145.1715 71° East 270 311 15,000  Level Aus ATC (RADAR)
01:54AM -20.3245 145.1908 72° East 272 313 15,000  Level Aus ATC (RADAR)
01:57AM -20.2588 145.3999 72° East 271 312 15,000  Level Aus ATC (RADAR)
01:58AM -20.2249 145.5073 71° East 270 311 15,000  Level Aus ATC (RADAR)
01:59AM -20.2169 145.5327 71° East 271 312 15,000  Level Aus ATC (RADAR)
02:02AM -20.1436 145.7657 71° East 268 308 15,000  Level Aus ATC (RADAR)
02:03AM -20.1097 145.8730 71° East 270 311 15,000  Level Aus ATC (RADAR)
02:05AM -20.0735 145.9866 71° East 273 314 15,000  Level Aus ATC (RADAR)
02:06AM -20.0376 146.1003 71° East 270 311 15,000  Level Aus ATC (RADAR)
02:07AM -20.0314 146.1190 71° East 271 312 15,000  Level Aus ATC (RADAR)
02:08AM -19.9870 146.2560 71° East 267 307 15,000  Level FlightAware
02:09AM -19.9690 146.3140 72° East 269 310 15,000  Level FlightAware
02:10AM -19.9550 146.3560 70° East 269 310 15,000  Level FlightAware
02:10AM -19.9370 146.4130 71° East 266 306 15,000 -120 Level FlightAware
02:11AM -19.9180 146.4540 71° East 267 307 14,900 -480 Descending Aus ATC (RADAR)
02:11AM -19.9140 146.4600 71° East 275 316 14,700 -1,800 Descending FlightAware
02:12AM -19.8890 146.5100 62° Northeast 280 322 13,500 -1,680 Descending FlightAware
02:12AM -19.8640 146.5570 61° Northeast 272 313 12,500 -1,380 Descending FlightAware
02:13AM -19.8390 146.6040 61° Northeast 272 313 11,600 -1,440 Descending FlightAware
02:14AM -19.8060 146.6520 54° Northeast 259 298 10,500 -1,860 Descending FlightAware
02:14AM -19.7720 146.6670 23° Northeast 263 303 9,400 -2,160 Descending FlightAware
02:15AM -19.7420 146.6790 21° North 259 298 8,500 -1,980 Descending FlightAware
02:15AM -19.7270 146.6840 17° North 254 292 8,100 -1,740 Descending FlightAware
02:15AM -19.7022 146.6940 17° North 250 288 7,500 -1,680 Descending Aus ATC (RADAR)
02:15AM -19.7000 146.6950 17° North 240 276 7,400 -1,620 Descending FlightAware
02:16AM -19.6830 146.7010 18° North 239 275 7,000 -1,380 Descending FlightAware
02:16AM -19.6540 146.7110 18° North 218 251 6,400 -1,080 Descending FlightAware
02:16AM -19.6390 146.7160 17° North 202 232 6,200 -900 Descending FlightAware
02:17AM -19.6130 146.7152 17° North 214 246 5,800 -1,080 Descending Aus ATC (RADAR)
02:17AM -19.5994 146.7099 340° North 211 243 5,500 -1,200 Descending Aus ATC (RADAR)
02:17AM -19.6010 146.7100 340° North 205 236 5,500 -1,260 Level FlightAware
02:18AM -19.5780 146.7030 344° North 215 247 5,000 -1,260 Descending FlightAware
02:18AM -19.5580 146.6970 344° North 217 250 4,600 -1,080 Descending FlightAware
02:18AM -19.5340 146.6900 345° North 216 249 4,200 -600 Descending FlightAware
02:19AM -19.5100 146.6830 345° North 201 231 4,100 -120 Descending FlightAware
02:19AM -19.4800 146.6730 343° North 183 211 4,100  Level FlightAware
02:20AM -19.4510 146.6750 North 182 209 4,100 -420 Level FlightAware
02:20AM -19.4260 146.6830 17° North 171 197 3,700 -960 Descending FlightAware
02:21AM -19.3970 146.6980 26° Northeast 168 193 3,000 -1,080 Descending FlightAware
02:22AM -19.3760 146.7100 28° Northeast 165 190 2,500 -960 Descending FlightAware
02:22AM -19.3415 146.7260 28° Northeast 172 198 1,800 -960 Descending Aus ATC (RADAR)
02:22AM -19.3420 146.7260 28° Northeast 161 185 1,800 -720 Level FlightAware
02:23AM -19.3240 146.7330 20° North 154 177 1,500 -780 Descending FlightAware
02:23AM -19.3060 146.7420 25° Northeast 141 162 1,100 -780 Descending FlightAware
02:23AM -19.3010 146.7440 21° North 132 152 1,000 -840 Descending FlightAware
02:24AM -19.2880 146.7509 21° North 137 158 700 -840 Descending Aus ATC (RADAR)
02:24AM -19.2830 146.7530 21° North 129 148 600 -540 Descending FlightAware
02:24AM -19.2690 146.7590 22° Northeast 107 123 400 -600 Descending FlightAware
02:25AM -19.2600 146.7640 28° Northeast 96 110 100 -360 Descending FlightAware
02:25AM -19.2500 146.7690 25° Northeast 96 110 100  Level FlightAware